Waimanalo, HI (96795)

1:38 AM HST on February 27, 2017 (GMT -1000)
Mariner's Ridge | | Change Station

Elev 686 ft 21.30 °N, 157.70 °W | Updated 1 second ago

Clear
Clear
70.3 °F
Feels Like 73 °F
N
19.1
Wind Variable Wind from ENE
Gusts 27.9 mph

Today
High -- | Low -- °F
--% Chance of Precip.
Yesterday
High -- | Low -- °F
Precip. -- in
Pressure 30.02 in
Visibility 7.0 miles
Clouds Few 2500 ft
Heat Index 73 °F
Dew Point 61 °F
Humidity 72%
Rainfall 0.00 in
Snow Depth Not available.
6:52 AM 6:34 PM
New Moon, 1% visible
METAR PHNG 270857Z VRB05KT 7SM FEW025 22/18 A3004 RMK SLP166 6//// T02170183 50004
Pressure 30.02 in
Visibility 7.0 miles
Clouds Few 2500 ft
Heat Index 73 °F
Dew Point 61 °F
Humidity 72%
Rainfall 0.00 in
Snow Depth Not available.
6:52 AM 6:34 PM
New Moon, 1% visible
METAR PHNG 270857Z VRB05KT 7SM FEW025 22/18 A3004 RMK SLP166 6//// T02170183 50004

Get Your Daily Forecast Email!

Thanks for signing up!

Be on the lookout for a verification email in your inbox.

You'll start receiving the daily forecast at 8 AM.

×

10-Day Weather Forecast

Almanac

Astronomy

Feb. 27, 2017 Rise Set
Actual Time
Civil Twilight
Nautical Twilight
Astronomical Twilight
Moon
Length of Visible Light
Length of Day
Tomorrow will be .
, % of the Moon is Illuminated

Today's Extremes

State Highs State Lows

Community

WunderPhotos

Upload Photos

1,962,540 photos uploaded!

WunderBlog® & News

Nearby

Air Quality

  Air Quality AQ Index Pollutant
Not available.

Snow Depth

Station Depth Elevation

Earthquake Activity

City Distance Mag. Time & Date
Minimum magnitude displayed is 2.5.

Coastal Water Temperatures

Place Temperature

Stations

Nearby Weather Stations

Station Location Temp. Windchill Dew Point Humidity Wind Precip. Elev Updated Type
                   

Watches & Warnings

There are currently no watches in effect.